Beulah, Oregon
Current Conditions -  °F | °C
As of 12:53 PM on Friday 31 Oct 2014 (Local Time) from KONO Reporting Station
Broken Clouds Broken Clouds  
Wind Chill: 51°   Ceiling: 11000
Heat Index: 51°   Visibility: 10mi
Dew Point: 44°   Wind: 6mph
Humidity: 77%   Direction: 40°NE
Pressure: 29.82"   Gusts: NA
Location:  43.79°N, 117.941°W
Report Text: KONO 311853Z AUTO 04005KT 10SM BKN110 11/07 A2982 RMK AO2 SLP101 T01060067
Loading
Personal Weather Stations






























Interactive Weather Map
Tropical Storm Tracking
New forecast layout! Learn more

10-Day Weather Forecast

Advertisements
Track Severe Weather on mobile